Tramore, Ireland
Current Conditions -  °F | °C
As of 8:30 PM on Saturday 20 Dec 2014 (Local Time) from EIWF Reporting Station
Scattered Clouds Scattered Clouds  
Wind Chill: 40°   Ceiling: Unl
Heat Index: 45°   Visibility: 6mi
Dew Point: 41°   Wind: 9mph
Humidity: 87%   Direction: 280°W
Pressure: 30.42"   Gusts: NA
Location:  52.16°N, 7.16°W
Report Text: EIWF 202030Z 28008KT 240V300 9999 SCT028 07/05 Q1030
Loading
Personal Weather Stations






























Interactive Weather Map New forecast layout! Learn more

10-Day Weather Forecast

Advertisements
Track Severe Weather on mobile